createdAt,value
2023-05-08T00:00:45.965Z,1021.79
2023-05-08T00:01:45.963Z,1021.75
2023-05-08T00:02:46.045Z,1021.74
2023-05-08T00:03:46.117Z,1021.74
2023-05-08T00:04:45.972Z,1021.77
2023-05-08T00:05:45.946Z,1021.72
2023-05-08T00:06:45.928Z,1021.67
2023-05-08T00:07:45.933Z,1021.69
2023-05-08T00:08:45.935Z,1021.72
2023-05-08T00:09:45.916Z,1021.67
2023-05-08T00:10:45.931Z,1021.66
2023-05-08T00:11:45.915Z,1021.67
2023-05-08T00:12:46.004Z,1021.71
2023-05-08T00:13:45.903Z,1021.69
2023-05-08T00:14:45.898Z,1021.69
2023-05-08T00:15:45.888Z,1021.71
2023-05-08T00:16:45.911Z,1021.75
2023-05-08T00:17:45.902Z,1021.73
2023-05-08T00:18:45.885Z,1021.75
2023-05-08T00:19:45.880Z,1021.76
2023-05-08T00:20:45.878Z,1021.73
2023-05-08T00:21:45.868Z,1021.73
2023-05-08T00:22:45.869Z,1021.74
2023-05-08T00:23:45.867Z,1021.75
2023-05-08T00:24:45.851Z,1021.77
2023-05-08T00:25:45.850Z,1021.79
2023-05-08T00:26:45.845Z,1021.79
2023-05-08T00:27:45.844Z,1021.82
2023-05-08T00:28:45.836Z,1021.82
2023-05-08T00:29:45.843Z,1021.82
2023-05-08T00:30:45.828Z,1021.83
2023-05-08T00:31:45.868Z,1021.85
2023-05-08T00:32:45.898Z,1021.83
2023-05-08T00:33:45.808Z,1021.87
2023-05-08T00:34:45.808Z,1021.86
2023-05-08T00:35:45.812Z,1021.87
2023-05-08T00:36:45.812Z,1021.87
2023-05-08T00:37:45.812Z,1021.87
2023-05-08T00:38:45.791Z,1021.86
2023-05-08T00:39:45.792Z,1021.85
2023-05-08T00:40:45.791Z,1021.88
2023-05-08T00:41:45.786Z,1021.86
2023-05-08T00:42:45.773Z,1021.90
2023-05-08T00:43:45.764Z,1021.96
2023-05-08T00:44:45.761Z,1021.95
2023-05-08T00:45:45.819Z,1021.97
2023-05-08T00:46:45.916Z,1021.97
2023-05-08T00:47:45.790Z,1021.92
2023-05-08T00:48:45.751Z,1021.98
2023-05-08T00:49:45.741Z,1021.97
2023-05-08T00:50:45.746Z,1021.99
2023-05-08T00:51:45.731Z,1022.00
2023-05-08T00:52:45.727Z,1022.01
2023-05-08T00:53:45.733Z,1021.97
2023-05-08T00:54:45.735Z,1021.99
2023-05-08T00:55:45.705Z,1021.98
2023-05-08T00:56:45.717Z,1021.98
2023-05-08T00:57:45.697Z,1021.98
2023-05-08T00:58:45.782Z,1022.04
2023-05-08T00:59:45.712Z,1022.01
2023-05-08T01:00:45.721Z,1021.99
2023-05-08T01:01:45.748Z,1021.97
2023-05-08T01:02:45.759Z,1022.04
2023-05-08T01:03:45.751Z,1021.98
2023-05-08T01:04:45.679Z,1022.04
2023-05-08T01:05:45.666Z,1022.01
2023-05-08T01:06:45.664Z,1021.99
2023-05-08T01:07:45.708Z,1021.99
2023-05-08T01:08:45.648Z,1022.01
2023-05-08T01:09:45.646Z,1021.99
2023-05-08T01:10:45.647Z,1022.01
2023-05-08T01:11:45.644Z,1021.97
2023-05-08T01:12:45.651Z,1021.99
2023-05-08T01:13:45.655Z,1021.99
2023-05-08T01:14:45.626Z,1021.97
2023-05-08T01:15:45.657Z,1021.99
2023-05-08T01:16:45.680Z,1022.00
2023-05-08T01:17:45.656Z,1022.00
2023-05-08T01:18:45.606Z,1022.00
2023-05-08T01:19:45.594Z,1021.98
2023-05-08T01:20:45.607Z,1022.03
2023-05-08T01:21:45.594Z,1022.02
2023-05-08T01:22:45.594Z,1021.99
2023-05-08T01:23:45.579Z,1021.99
2023-05-08T01:24:45.572Z,1021.98
2023-05-08T01:25:45.578Z,1022.01
2023-05-08T01:26:45.632Z,1021.97
2023-05-08T01:27:45.828Z,1022.03
2023-05-08T01:28:45.662Z,1021.99
2023-05-08T01:29:45.602Z,1022.06
2023-05-08T01:30:46.495Z,1022.04
2023-05-08T01:31:45.651Z,1022.03
2023-05-08T01:32:45.695Z,1022.07
2023-05-08T01:33:45.649Z,1022.06
2023-05-08T01:34:45.758Z,1022.04
2023-05-08T01:35:45.567Z,1022.07
2023-05-08T01:36:45.719Z,1022.05
2023-05-08T01:37:45.624Z,1022.07
2023-05-08T01:38:45.515Z,1022.06
2023-05-08T01:39:45.519Z,1022.05
2023-05-08T01:40:45.524Z,1022.07
2023-05-08T01:41:45.501Z,1022.07
2023-05-08T01:42:45.496Z,1022.10
2023-05-08T01:43:45.482Z,1022.07
2023-05-08T01:44:45.479Z,1022.10
2023-05-08T01:45:45.473Z,1022.10
2023-05-08T01:46:45.524Z,1022.07
2023-05-08T01:47:45.593Z,1022.06
2023-05-08T01:48:45.459Z,1022.07
2023-05-08T01:49:45.453Z,1022.05
2023-05-08T01:50:45.462Z,1022.10
2023-05-08T01:51:45.453Z,1022.10
2023-05-08T01:52:45.546Z,1022.14
2023-05-08T01:53:45.431Z,1022.12
2023-05-08T01:54:45.424Z,1022.11
2023-05-08T01:55:45.418Z,1022.12
2023-05-08T01:56:45.436Z,1022.11
2023-05-08T01:57:45.417Z,1022.11
2023-05-08T01:58:45.417Z,1022.12
2023-05-08T01:59:45.403Z,1022.05
2023-05-08T02:00:45.474Z,1022.13
2023-05-08T02:01:45.436Z,1022.13
2023-05-08T02:02:45.496Z,1022.15
2023-05-08T02:03:45.406Z,1022.12
2023-05-08T02:04:45.392Z,1022.13
2023-05-08T02:05:45.382Z,1022.13
2023-05-08T02:06:45.366Z,1022.12
2023-05-08T02:07:45.372Z,1022.11
2023-05-08T02:08:45.446Z,1022.12
2023-05-08T02:09:45.353Z,1022.12
2023-05-08T02:10:45.343Z,1022.09
2023-05-08T02:11:45.352Z,1022.10
2023-05-08T02:12:45.400Z,1022.09
2023-05-08T02:13:45.337Z,1022.06
2023-05-08T02:14:45.332Z,1022.10
2023-05-08T02:15:45.327Z,1022.10
2023-05-08T02:16:45.339Z,1022.07
2023-05-08T02:17:45.364Z,1022.08
2023-05-08T02:18:45.309Z,1022.09
2023-05-08T02:19:45.298Z,1022.07
2023-05-08T02:20:45.295Z,1022.07
2023-05-08T02:21:45.309Z,1022.08
2023-05-08T02:22:45.293Z,1022.06
2023-05-08T02:23:45.280Z,1022.04
2023-05-08T02:24:45.281Z,1022.11
2023-05-08T02:25:45.269Z,1022.04
2023-05-08T02:26:45.267Z,1022.05
2023-05-08T02:27:45.259Z,1022.07
2023-05-08T02:28:46.019Z,1022.02
2023-05-08T02:29:45.250Z,1022.07
2023-05-08T02:30:45.247Z,1022.05
2023-05-08T02:31:45.304Z,1022.06
2023-05-08T02:32:45.300Z,1022.07
2023-05-08T02:33:45.231Z,1022.12
2023-05-08T02:34:54.889Z,1022.08
2023-05-08T02:35:45.218Z,1022.06
2023-05-08T02:36:45.227Z,1022.08
2023-05-08T02:37:45.220Z,1022.07
2023-05-08T02:38:45.234Z,1022.08
2023-05-08T02:39:45.213Z,1022.05
2023-05-08T02:40:45.203Z,1021.99
2023-05-08T02:41:45.189Z,1022.00
2023-05-08T02:42:45.185Z,1021.99
2023-05-08T02:43:45.194Z,1021.96
2023-05-08T02:44:45.181Z,1021.95
2023-05-08T02:45:45.206Z,1021.95
2023-05-08T02:46:45.155Z,1021.95
2023-05-08T02:47:45.229Z,1021.97
2023-05-08T02:48:45.156Z,1021.99
2023-05-08T02:49:45.157Z,1021.95
2023-05-08T02:50:46.006Z,1021.96
2023-05-08T02:51:45.144Z,1021.96
2023-05-08T02:52:45.135Z,1021.93
2023-05-08T02:53:45.129Z,1021.94
2023-05-08T02:54:45.121Z,1021.96
2023-05-08T02:55:45.117Z,1021.95
2023-05-08T02:56:45.112Z,1021.97
2023-05-08T02:57:45.091Z,1022.00
2023-05-08T02:58:45.107Z,1021.94
2023-05-08T02:59:45.079Z,1021.92
2023-05-08T03:00:45.085Z,1021.98
2023-05-08T03:01:45.177Z,1021.96
2023-05-08T03:02:45.118Z,1021.99
2023-05-08T03:03:45.192Z,1021.96
2023-05-08T03:04:45.109Z,1021.98
2023-05-08T03:05:45.056Z,1021.99
2023-05-08T03:06:45.071Z,1022.05
2023-05-08T03:07:45.556Z,1022.03
2023-05-08T03:08:45.060Z,1022.02
2023-05-08T03:09:45.041Z,1022.01
2023-05-08T03:10:45.060Z,1022.08
2023-05-08T03:11:45.020Z,1022.08
2023-05-08T03:12:45.157Z,1022.06
2023-05-08T03:13:45.010Z,1022.05
2023-05-08T03:14:45.016Z,1022.03
2023-05-08T03:15:45.074Z,1022.05
2023-05-08T03:16:45.006Z,1022.02
2023-05-08T03:17:45.023Z,1022.05
2023-05-08T03:18:45.003Z,1022.05
2023-05-08T03:19:44.994Z,1022.04
2023-05-08T03:20:45.000Z,1022.02
2023-05-08T03:21:44.960Z,1022.08
2023-05-08T03:22:44.983Z,1022.04
2023-05-08T03:23:44.979Z,1022.07
2023-05-08T03:24:44.958Z,1022.07
2023-05-08T03:25:44.954Z,1022.02
2023-05-08T03:26:44.950Z,1022.04
2023-05-08T03:27:44.975Z,1022.05
2023-05-08T03:28:45.071Z,1022.03
2023-05-08T03:29:44.938Z,1022.05
2023-05-08T03:30:45.414Z,1022.09
2023-05-08T03:31:45.139Z,1022.04
2023-05-08T03:32:45.062Z,1022.08
2023-05-08T03:33:44.905Z,1022.09
2023-05-08T03:34:44.906Z,1022.08
2023-05-08T03:35:44.959Z,1022.04
2023-05-08T03:36:44.892Z,1022.11
2023-05-08T03:37:44.884Z,1022.06
2023-05-08T03:38:44.905Z,1022.09
2023-05-08T03:39:44.894Z,1022.09
2023-05-08T03:40:44.901Z,1022.10
2023-05-08T03:41:44.859Z,1022.07
2023-05-08T03:42:44.901Z,1022.06
2023-05-08T03:43:44.907Z,1022.09
2023-05-08T03:44:44.864Z,1022.14
2023-05-08T03:45:44.854Z,1022.11
2023-05-08T03:46:44.877Z,1022.11
2023-05-08T03:47:44.860Z,1022.11
2023-05-08T03:48:44.832Z,1022.14
2023-05-08T03:49:44.844Z,1022.14
2023-05-08T03:50:44.858Z,1022.14
2023-05-08T03:51:44.827Z,1022.12
2023-05-08T03:52:44.849Z,1022.15
2023-05-08T03:53:45.504Z,1022.13
2023-05-08T03:54:44.803Z,1022.14
2023-05-08T03:55:44.791Z,1022.15
2023-05-08T03:56:44.778Z,1022.18
2023-05-08T03:57:44.802Z,1022.18
2023-05-08T03:58:44.779Z,1022.11
2023-05-08T03:59:44.780Z,1022.23
2023-05-08T04:00:44.768Z,1022.18
2023-05-08T04:01:44.892Z,1022.20
2023-05-08T04:02:44.791Z,1022.21
2023-05-08T04:03:44.856Z,1022.19
2023-05-08T04:04:44.772Z,1022.19
2023-05-08T04:05:44.752Z,1022.21
2023-05-08T04:06:50.166Z,1022.19
2023-05-08T04:07:44.735Z,1022.19
2023-05-08T04:08:44.752Z,1022.21
2023-05-08T04:09:44.756Z,1022.26
2023-05-08T04:10:44.728Z,1022.25
2023-05-08T04:11:44.738Z,1022.24
2023-05-08T04:12:44.773Z,1022.23
2023-05-08T04:13:44.752Z,1022.27
2023-05-08T04:14:44.716Z,1022.28
2023-05-08T04:15:44.727Z,1022.26
2023-05-08T04:16:44.753Z,1022.25
2023-05-08T04:17:44.762Z,1022.23
2023-05-08T04:18:44.684Z,1022.27
2023-05-08T04:19:44.722Z,1022.25
2023-05-08T04:20:46.261Z,1022.21
2023-05-08T04:21:44.666Z,1022.24
2023-05-08T04:22:44.655Z,1022.20
2023-05-08T04:23:44.672Z,1022.26
2023-05-08T04:24:44.647Z,1022.25
2023-05-08T04:25:44.668Z,1022.22
2023-05-08T04:26:44.622Z,1022.22
2023-05-08T04:27:44.624Z,1022.23
2023-05-08T04:28:44.614Z,1022.25
2023-05-08T04:29:44.635Z,1022.27
2023-05-08T04:30:44.624Z,1022.28
2023-05-08T04:31:44.656Z,1022.24
2023-05-08T04:32:46.678Z,1022.30
2023-05-08T04:33:44.602Z,1022.27
2023-05-08T04:34:44.596Z,1022.34
2023-05-08T04:35:44.597Z,1022.27
2023-05-08T04:36:44.646Z,1022.27
2023-05-08T04:37:44.578Z,1022.32
2023-05-08T04:38:44.569Z,1022.32
2023-05-08T04:39:44.571Z,1022.33
2023-05-08T04:40:44.578Z,1022.32
2023-05-08T04:41:44.640Z,1022.36
2023-05-08T04:42:44.540Z,1022.33
2023-05-08T04:43:44.553Z,1022.35
2023-05-08T04:44:44.543Z,1022.42
2023-05-08T04:45:44.551Z,1022.38
2023-05-08T04:46:44.546Z,1022.41
2023-05-08T04:47:44.532Z,1022.41
2023-05-08T04:48:44.528Z,1022.42
2023-05-08T04:49:44.507Z,1022.45
2023-05-08T04:50:44.507Z,1022.52
2023-05-08T04:51:44.505Z,1022.48
2023-05-08T04:52:44.489Z,1022.50
2023-05-08T04:53:44.497Z,1022.54
2023-05-08T04:54:44.474Z,1022.50
2023-05-08T04:55:44.486Z,1022.61
2023-05-08T04:56:44.493Z,1022.60
2023-05-08T04:57:44.506Z,1022.58
2023-05-08T04:58:44.538Z,1022.65
2023-05-08T04:59:44.484Z,1022.63
2023-05-08T05:00:44.450Z,1022.65
2023-05-08T05:01:44.467Z,1022.61
2023-05-08T05:02:44.518Z,1022.56
2023-05-08T05:03:44.455Z,1022.59
2023-05-08T05:04:44.450Z,1022.57
2023-05-08T05:05:44.416Z,1022.65
2023-05-08T05:06:44.423Z,1022.61
2023-05-08T05:07:44.416Z,1022.59
2023-05-08T05:08:45.023Z,1022.58
2023-05-08T05:09:44.410Z,1022.63
2023-05-08T05:10:44.412Z,1022.66
2023-05-08T05:11:44.386Z,1022.62
2023-05-08T05:12:44.451Z,1022.61
2023-05-08T05:13:44.375Z,1022.67
2023-05-08T05:14:44.361Z,1022.63
2023-05-08T05:15:44.395Z,1022.64
2023-05-08T05:16:44.419Z,1022.74
2023-05-08T05:17:44.436Z,1022.72
2023-05-08T05:18:44.351Z,1022.71
2023-05-08T05:19:44.349Z,1022.75
2023-05-08T05:20:44.333Z,1022.75
2023-05-08T05:21:44.339Z,1022.73
2023-05-08T05:22:44.324Z,1022.75
2023-05-08T05:23:44.322Z,1022.76
2023-05-08T05:24:44.331Z,1022.72
2023-05-08T05:25:44.308Z,1022.76
2023-05-08T05:26:44.322Z,1022.74
2023-05-08T05:27:44.313Z,1022.76
2023-05-08T05:28:44.283Z,1022.75
2023-05-08T05:29:44.284Z,1022.76
2023-05-08T05:30:45.021Z,1022.79
2023-05-08T05:31:45.058Z,1022.78
2023-05-08T05:32:44.276Z,1022.74
2023-05-08T05:33:44.271Z,1022.79
2023-05-08T05:34:44.426Z,1022.79
2023-05-08T05:35:44.270Z,1022.82
2023-05-08T05:36:44.269Z,1022.81
2023-05-08T05:37:44.246Z,1022.95
2023-05-08T05:38:44.240Z,1022.96
2023-05-08T05:39:44.238Z,1022.99
2023-05-08T05:40:44.226Z,1023.08
2023-05-08T05:41:44.246Z,1023.04
2023-05-08T05:42:44.214Z,1023.12
2023-05-08T05:43:44.235Z,1023.18
2023-05-08T05:44:44.207Z,1023.21
2023-05-08T05:45:44.211Z,1023.30
2023-05-08T05:46:44.567Z,1023.35
2023-05-08T05:47:44.266Z,1023.38
2023-05-08T05:48:44.211Z,1023.34
2023-05-08T05:49:44.760Z,1023.42
2023-05-08T05:50:44.244Z,1023.51
2023-05-08T05:51:44.254Z,1023.52
2023-05-08T05:52:45.024Z,1023.58
2023-05-08T05:53:44.225Z,1023.58
2023-05-08T05:54:44.274Z,1023.61
2023-05-08T05:55:44.277Z,1023.57
2023-05-08T05:56:44.260Z,1023.47
2023-05-08T05:57:44.251Z,1023.61
2023-05-08T05:58:44.262Z,1023.82
2023-05-08T05:59:44.265Z,1023.78
2023-05-08T06:00:44.260Z,1023.74
2023-05-08T06:01:44.299Z,1023.79
2023-05-08T06:02:44.446Z,1023.87
2023-05-08T06:03:44.427Z,1023.97
2023-05-08T06:04:44.306Z,1024.04
2023-05-08T06:05:44.332Z,1024.07
2023-05-08T06:06:44.315Z,1024.13
2023-05-08T06:07:44.321Z,1024.21
2023-05-08T06:08:44.375Z,1024.28
2023-05-08T06:09:44.356Z,1024.34
2023-05-08T06:10:44.365Z,1024.46
2023-05-08T06:11:44.917Z,1024.46
2023-05-08T06:12:44.396Z,1024.49
2023-05-08T06:13:44.388Z,1024.53
2023-05-08T06:14:44.388Z,1024.55
2023-05-08T06:15:44.388Z,1024.59
2023-05-08T06:16:44.476Z,1024.48
2023-05-08T06:17:44.430Z,1024.17
2023-05-08T06:18:44.430Z,1023.88
2023-05-08T06:19:44.444Z,1023.69
2023-05-08T06:20:44.443Z,1023.57
2023-05-08T06:21:44.475Z,1023.53
2023-05-08T06:22:44.460Z,1023.45
2023-05-08T06:23:44.490Z,1023.50
2023-05-08T06:24:44.645Z,1023.55
2023-05-08T06:25:44.489Z,1023.54
2023-05-08T06:26:44.486Z,1023.55
2023-05-08T06:27:44.515Z,1023.59
2023-05-08T06:28:44.552Z,1023.60
2023-05-08T06:29:44.528Z,1023.65
2023-05-08T06:30:44.570Z,1023.62
2023-05-08T06:31:44.545Z,1023.62
2023-05-08T06:32:44.623Z,1023.63
2023-05-08T06:33:44.576Z,1023.59
2023-05-08T06:34:44.587Z,1023.56
2023-05-08T06:35:44.608Z,1023.59
2023-05-08T06:36:45.570Z,1023.63
2023-05-08T06:37:44.613Z,1023.55
2023-05-08T06:38:44.632Z,1023.54
2023-05-08T06:39:44.654Z,1023.56
2023-05-08T06:40:44.715Z,1023.49
2023-05-08T06:41:44.665Z,1023.52
2023-05-08T06:42:44.674Z,1023.48
2023-05-08T06:43:44.694Z,1023.48
2023-05-08T06:44:44.691Z,1023.50
2023-05-08T06:45:44.708Z,1023.53
2023-05-08T06:46:44.745Z,1023.56
2023-05-08T06:47:44.762Z,1023.53
2023-05-08T06:48:44.787Z,1023.50
2023-05-08T06:49:44.762Z,1023.50
2023-05-08T06:50:44.814Z,1023.51
2023-05-08T06:51:44.790Z,1023.51
2023-05-08T06:52:44.855Z,1023.52
2023-05-08T06:53:44.846Z,1023.54
2023-05-08T06:54:44.829Z,1023.58
2023-05-08T06:55:44.842Z,1023.54
2023-05-08T06:56:44.880Z,1023.55
2023-05-08T06:57:44.870Z,1023.54
2023-05-08T06:58:56.549Z,1023.59
2023-05-08T06:59:44.902Z,1023.53
2023-05-08T07:00:44.925Z,1023.54
2023-05-08T07:01:45.033Z,1023.57
2023-05-08T07:02:44.990Z,1023.60
2023-05-08T07:03:44.955Z,1023.61
2023-05-08T07:04:45.011Z,1023.53
2023-05-08T07:05:44.975Z,1023.53
2023-05-08T07:06:44.971Z,1023.55
2023-05-08T07:07:44.995Z,1023.51
2023-05-08T07:08:45.002Z,1023.53
2023-05-08T07:09:45.022Z,1023.52
2023-05-08T07:10:45.029Z,1023.48
2023-05-08T07:11:45.050Z,1023.54
2023-05-08T07:12:45.165Z,1023.55
2023-05-08T07:13:45.058Z,1023.53
2023-05-08T07:14:45.067Z,1023.48
2023-05-08T07:15:45.167Z,1023.48
2023-05-08T07:16:45.107Z,1023.51
2023-05-08T07:17:45.181Z,1023.46
2023-05-08T07:18:45.116Z,1023.50
2023-05-08T07:19:45.168Z,1023.47
2023-05-08T07:20:45.161Z,1023.47
2023-05-08T07:21:45.182Z,1023.60
2023-05-08T07:22:45.207Z,1023.48
2023-05-08T07:23:45.210Z,1023.49
2023-05-08T07:24:45.202Z,1023.55
2023-05-08T07:25:45.223Z,1023.64
2023-05-08T07:26:45.244Z,1023.62
2023-05-08T07:27:45.290Z,1023.52
2023-05-08T07:28:45.475Z,1023.57
2023-05-08T07:29:45.284Z,1023.59
2023-05-08T07:30:45.281Z,1023.59
2023-05-08T07:31:45.336Z,1023.58
2023-05-08T07:32:45.391Z,1023.62
2023-05-08T07:33:45.361Z,1023.60
2023-05-08T07:34:45.337Z,1023.59
2023-05-08T07:35:45.358Z,1023.56
2023-05-08T07:36:45.397Z,1023.55
2023-05-08T07:37:45.382Z,1023.59
2023-05-08T07:38:45.385Z,1023.52
2023-05-08T07:39:45.429Z,1023.48
2023-05-08T07:40:45.426Z,1023.56
2023-05-08T07:41:46.683Z,1023.56
2023-05-08T07:42:45.444Z,1023.50
2023-05-08T07:43:45.452Z,1023.55
2023-05-08T07:44:54.418Z,1023.56
2023-05-08T07:45:45.488Z,1023.46
2023-05-08T07:46:45.546Z,1023.51
2023-05-08T07:47:45.538Z,1023.58
2023-05-08T07:48:45.519Z,1023.56
2023-05-08T07:49:45.545Z,1023.53
2023-05-08T07:50:45.554Z,1023.39
2023-05-08T07:51:45.565Z,1023.51
2023-05-08T07:52:46.599Z,1023.48
2023-05-08T07:53:45.612Z,1023.56
2023-05-08T07:54:45.588Z,1023.50
2023-05-08T07:55:45.625Z,1023.43
2023-05-08T07:56:45.621Z,1023.49
2023-05-08T07:57:45.642Z,1023.50
2023-05-08T07:58:45.635Z,1023.45
2023-05-08T07:59:45.681Z,1023.38
2023-05-08T08:00:45.706Z,1023.40
2023-05-08T08:01:45.719Z,1023.40
2023-05-08T08:02:45.849Z,1023.37
2023-05-08T08:03:45.784Z,1023.40
2023-05-08T08:04:45.734Z,1023.35
2023-05-08T08:05:45.753Z,1023.46
2023-05-08T08:06:45.752Z,1023.32
2023-05-08T08:07:45.770Z,1023.37
2023-05-08T08:08:45.757Z,1023.25
2023-05-08T08:09:45.773Z,1023.28
2023-05-08T08:10:45.799Z,1023.26
2023-05-08T08:11:45.811Z,1023.29
2023-05-08T08:12:45.842Z,1023.30
2023-05-08T08:13:45.826Z,1023.30
2023-05-08T08:14:45.828Z,1023.25
2023-05-08T08:15:45.840Z,1023.20
2023-05-08T08:16:45.978Z,1023.17
2023-05-08T08:17:45.884Z,1023.22
2023-05-08T08:18:45.869Z,1023.20
2023-05-08T08:19:45.943Z,1023.17
2023-05-08T08:20:45.879Z,1023.18
2023-05-08T08:21:45.940Z,1023.24
2023-05-08T08:22:45.901Z,1023.19
2023-05-08T08:23:45.889Z,1023.15
2023-05-08T08:24:45.915Z,1023.16
2023-05-08T08:25:45.938Z,1023.19
2023-05-08T08:26:45.910Z,1023.35
2023-05-08T08:27:45.931Z,1023.18
2023-05-08T08:28:45.960Z,1023.18
2023-05-08T08:29:45.923Z,1023.10
2023-05-08T08:30:46.025Z,1023.06
2023-05-08T08:31:45.934Z,1023.06
2023-05-08T08:32:46.037Z,1023.02
2023-05-08T08:33:45.943Z,1023.20
2023-05-08T08:34:45.949Z,1023.05
2023-05-08T08:35:45.957Z,1023.12
2023-05-08T08:36:45.946Z,1023.16
2023-05-08T08:37:45.986Z,1023.07
2023-05-08T08:38:45.968Z,1023.08
2023-05-08T08:39:45.968Z,1023.11
2023-05-08T08:40:45.979Z,1023.07
2023-05-08T08:41:46.002Z,1023.09
2023-05-08T08:42:45.964Z,1023.16
2023-05-08T08:43:46.009Z,1023.12
2023-05-08T08:44:45.976Z,1023.09
2023-05-08T08:45:45.970Z,1023.12
2023-05-08T08:46:46.013Z,1023.13
2023-05-08T08:47:46.058Z,1023.10
2023-05-08T08:48:46.089Z,1023.09
2023-05-08T08:49:45.978Z,1023.10
2023-05-08T08:50:45.990Z,1023.09
2023-05-08T08:51:45.997Z,1023.14
2023-05-08T08:52:45.992Z,1023.15
2023-05-08T08:53:46.000Z,1023.15
2023-05-08T08:54:45.994Z,1023.04
2023-05-08T08:55:46.001Z,1023.06
2023-05-08T08:56:46.089Z,1023.02
2023-05-08T08:57:45.990Z,1023.07
2023-05-08T08:58:45.990Z,1023.07
2023-05-08T08:59:46.007Z,1023.03
2023-05-08T09:00:46.023Z,1023.01
2023-05-08T09:01:46.068Z,1023.05
2023-05-08T09:02:46.143Z,1022.99
2023-05-08T09:03:47.640Z,1023.07
2023-05-08T09:04:46.104Z,1023.04
2023-05-08T09:05:46.049Z,1023.02
2023-05-08T09:06:46.008Z,1023.02
2023-05-08T09:07:46.002Z,1023.01
2023-05-08T09:08:46.009Z,1022.99
2023-05-08T09:09:46.011Z,1022.95
2023-05-08T09:10:46.002Z,1022.92
2023-05-08T09:11:46.031Z,1022.93
2023-05-08T09:12:46.040Z,1022.96
2023-05-08T09:13:46.000Z,1022.94
2023-05-08T09:14:46.007Z,1022.89
2023-05-08T09:15:46.012Z,1022.90
2023-05-08T09:16:46.075Z,1022.94
2023-05-08T09:17:46.019Z,1022.94
2023-05-08T09:18:46.026Z,1022.92
2023-05-08T09:19:46.001Z,1022.99
2023-05-08T09:20:46.109Z,1022.92
2023-05-08T09:21:46.006Z,1022.92
2023-05-08T09:22:46.038Z,1022.91
2023-05-08T09:23:46.019Z,1022.95
2023-05-08T09:24:46.001Z,1022.98
2023-05-08T09:25:46.006Z,1022.92
2023-05-08T09:26:46.027Z,1022.92
2023-05-08T09:27:46.015Z,1022.90
2023-05-08T09:28:46.016Z,1022.88
2023-05-08T09:29:46.005Z,1022.87
2023-05-08T09:30:46.016Z,1022.99
2023-05-08T09:31:46.119Z,1022.92
2023-05-08T09:32:46.137Z,1022.85
2023-05-08T09:33:46.040Z,1022.95
2023-05-08T09:34:46.017Z,1022.95
2023-05-08T09:35:46.034Z,1022.93
2023-05-08T09:36:46.111Z,1022.95
2023-05-08T09:37:46.024Z,1023.00
2023-05-08T09:38:46.022Z,1022.93
2023-05-08T09:39:46.010Z,1022.84
2023-05-08T09:40:46.014Z,1022.87
2023-05-08T09:41:46.029Z,1022.85
2023-05-08T09:42:46.058Z,1022.93
2023-05-08T09:43:46.014Z,1022.86
2023-05-08T09:44:46.018Z,1022.83
2023-05-08T09:45:46.042Z,1022.84
2023-05-08T09:46:46.009Z,1022.77
2023-05-08T09:47:46.077Z,1022.87
2023-05-08T09:48:46.032Z,1022.81
2023-05-08T09:49:46.008Z,1022.87
2023-05-08T09:50:46.019Z,1022.89
2023-05-08T09:51:46.016Z,1022.84
2023-05-08T09:52:46.120Z,1022.84
2023-05-08T09:53:46.018Z,1022.85
2023-05-08T09:54:46.015Z,1022.85
2023-05-08T09:55:46.022Z,1022.85
2023-05-08T09:56:46.036Z,1022.80
2023-05-08T09:57:46.004Z,1022.79
2023-05-08T09:58:46.011Z,1022.84
2023-05-08T09:59:46.004Z,1022.75
2023-05-08T10:00:46.049Z,1022.78
2023-05-08T10:01:46.004Z,1022.79
2023-05-08T10:02:46.055Z,1022.75
2023-05-08T10:03:46.068Z,1022.77
2023-05-08T10:04:46.052Z,1022.74
2023-05-08T10:05:46.010Z,1022.72
2023-05-08T10:06:46.017Z,1022.78
2023-05-08T10:07:46.016Z,1022.70
2023-05-08T10:08:46.108Z,1022.81
2023-05-08T10:09:50.591Z,1022.72
2023-05-08T10:10:46.040Z,1022.79
2023-05-08T10:11:46.011Z,1022.76
2023-05-08T10:12:46.030Z,1022.69
2023-05-08T10:13:46.021Z,1022.67
2023-05-08T10:14:46.739Z,1022.69
2023-05-08T10:15:46.038Z,1022.65
2023-05-08T10:16:46.055Z,1022.71
2023-05-08T10:17:46.056Z,1022.70
2023-05-08T10:18:46.052Z,1022.67
2023-05-08T10:19:46.055Z,1022.78
2023-05-08T10:20:46.040Z,1022.66
2023-05-08T10:21:46.012Z,1022.68
2023-05-08T10:22:46.018Z,1022.79
2023-05-08T10:23:46.047Z,1022.72
2023-05-08T10:24:46.128Z,1022.62
2023-05-08T10:25:45.995Z,1022.63
2023-05-08T10:27:02.749Z,1022.67
2023-05-08T10:27:46.009Z,1022.72
2023-05-08T10:28:46.014Z,1022.65
2023-05-08T10:29:45.999Z,1022.68
2023-05-08T10:30:46.057Z,1022.65
2023-05-08T10:31:46.086Z,1022.82
2023-05-08T10:32:46.066Z,1022.64
2023-05-08T10:33:46.004Z,1022.66
2023-05-08T10:34:46.025Z,1022.62
2023-05-08T10:35:46.013Z,1022.65
2023-05-08T10:36:46.022Z,1022.60
2023-05-08T10:37:46.015Z,1022.60
2023-05-08T10:38:46.002Z,1022.51
2023-05-08T10:39:46.020Z,1022.56
2023-05-08T10:40:46.109Z,1022.56
2023-05-08T10:41:46.010Z,1022.58
2023-05-08T10:42:46.013Z,1022.49
2023-05-08T10:43:46.003Z,1022.51
2023-05-08T10:44:46.006Z,1022.51
2023-05-08T10:45:46.001Z,1022.45
2023-05-08T10:46:46.179Z,1022.49
2023-05-08T10:47:46.103Z,1022.46
2023-05-08T10:48:46.000Z,1022.46
2023-05-08T10:49:45.998Z,1022.46
2023-05-08T10:50:46.001Z,1022.47
2023-05-08T10:51:46.002Z,1022.46
2023-05-08T10:52:46.033Z,1022.35
2023-05-08T10:53:46.046Z,1022.34
2023-05-08T10:54:46.001Z,1022.37
2023-05-08T10:55:46.052Z,1022.36
2023-05-08T10:56:46.035Z,1022.33
2023-05-08T10:57:46.688Z,1022.35
2023-05-08T10:58:45.995Z,1022.30
2023-05-08T10:59:46.006Z,1022.38
2023-05-08T11:00:45.995Z,1022.35
2023-05-08T11:01:46.090Z,1022.36
2023-05-08T11:02:46.067Z,1022.37
2023-05-08T11:03:46.236Z,1022.32
2023-05-08T11:04:46.062Z,1022.33
2023-05-08T11:05:46.028Z,1022.35
2023-05-08T11:06:46.042Z,1022.37
2023-05-08T11:07:45.992Z,1022.33
2023-05-08T11:08:46.003Z,1022.30
2023-05-08T11:09:45.999Z,1022.33
2023-05-08T11:10:45.996Z,1022.27
2023-05-08T11:11:46.004Z,1022.33
2023-05-08T11:12:46.144Z,1022.30
2023-05-08T11:13:46.014Z,1022.26
2023-05-08T11:14:45.996Z,1022.29
2023-05-08T11:15:46.075Z,1022.24
2023-05-08T11:16:46.067Z,1022.20
2023-05-08T11:17:46.036Z,1022.19
2023-05-08T11:18:49.658Z,1022.25
2023-05-08T11:19:46.022Z,1022.30
2023-05-08T11:20:45.977Z,1022.21
2023-05-08T11:21:46.041Z,1022.21
2023-05-08T11:22:45.993Z,1022.27
2023-05-08T11:23:45.978Z,1022.21
2023-05-08T11:24:45.980Z,1022.23
2023-05-08T11:25:46.021Z,1022.29
2023-05-08T11:26:45.975Z,1022.31
2023-05-08T11:27:45.984Z,1022.22
2023-05-08T11:28:45.995Z,1022.23
2023-05-08T11:29:45.992Z,1022.17
2023-05-08T11:30:46.018Z,1022.25
2023-05-08T11:31:46.049Z,1022.17
2023-05-08T11:32:46.076Z,1022.15
2023-05-08T11:33:45.984Z,1022.15
2023-05-08T11:34:46.046Z,1022.13
2023-05-08T11:35:46.049Z,1022.25
2023-05-08T11:36:45.975Z,1022.25
2023-05-08T11:37:45.966Z,1022.22
2023-05-08T11:38:45.988Z,1022.27
2023-05-08T11:39:45.978Z,1022.18
2023-05-08T11:40:46.017Z,1022.12
2023-05-08T11:41:45.996Z,1022.24
2023-05-08T11:42:45.998Z,1022.17
2023-05-08T11:43:46.001Z,1022.16
2023-05-08T11:44:46.005Z,1022.11
2023-05-08T11:45:45.972Z,1022.12
2023-05-08T11:46:45.998Z,1022.11
2023-05-08T11:47:46.053Z,1022.11
2023-05-08T11:48:45.981Z,1022.12
2023-05-08T11:49:45.965Z,1022.01
2023-05-08T11:50:45.967Z,1022.00
2023-05-08T11:51:45.977Z,1022.00
2023-05-08T11:52:45.979Z,1022.03
2023-05-08T11:53:45.982Z,1021.98
2023-05-08T11:54:45.973Z,1021.91
2023-05-08T11:55:45.984Z,1021.96
2023-05-08T11:56:47.596Z,1021.89
2023-05-08T11:57:45.970Z,1021.96
2023-05-08T11:58:45.978Z,1021.92
2023-05-08T11:59:45.974Z,1021.90
2023-05-08T12:00:46.122Z,1021.95
2023-05-08T12:01:50.829Z,1021.88
2023-05-08T12:02:46.065Z,1021.90
2023-05-08T12:03:46.046Z,1021.90
2023-05-08T12:04:46.025Z,1021.94
2023-05-08T12:05:45.958Z,1021.88